http://www.ohio.gov http://www.dot.state.oh.us
W W W . B U C K E Y E T R A F F I C . O R G

1-SR49 @ SR249 (200000) Status Air Temp Sfc Temp Sub Temp Dew Temp Wind Precip Traffic Updated
Sensor [A]: Atmospheric - 66.0 - - 49.8 15.5 / NW - - 10/25/2014 3:31:57 PM
Sensor [0]: SR49 NB Lane Dry - 78.8 - - - - 0 / 9.9 10/25/2014 3:31:57 PM
Sensor [1]: SR 249 EB Lane Dry - 82.4 - - - - 0 / 9.9 10/25/2014 3:31:57 PM
2-SR-309 @ SR-235 (200001) Status Air Temp Sfc Temp Sub Temp Dew Temp Wind Precip Traffic Updated
Sensor [A]: Atmospheric - 71.1 - - 49.5 18.6 / N - - 10/25/2014 3:31:25 PM
Sensor [0]: SR309 EB Dry - 90.5 60.8 - - - - 10/25/2014 3:31:25 PM
Sensor [1]: SR235 SB Dry - 84.2 - - - - - 10/25/2014 3:31:25 PM
3-US24 @ Indiana Line (200002) Status Air Temp Sfc Temp Sub Temp Dew Temp Wind Precip Traffic Updated
Sensor [A]: Atmospheric - 68.9 - - 47.7 13.0 / W - - 10/25/2014 3:32:00 PM
Sensor [0]: EB Driving Dry - 78.8 57.2 - - - 0 / 9.9 10/25/2014 3:32:00 PM
Sensor [1]: WB Driving Dry - 77.0 - - - - 0 / 9.9 10/25/2014 3:32:00 PM
4-US224 @ SR190 (200003) Status Air Temp Sfc Temp Sub Temp Dew Temp Wind Precip Traffic Updated
Sensor [A]: Atmospheric - 72.3 - - 51.1 9.3 / SW - - 10/25/2014 3:30:14 PM
Sensor [0]: Eastbound Driving Lane Dry - 91.4 - - - - 1 / 65.2 10/25/2014 3:30:14 PM
5- US30 @ SR49 North (200004) Status Air Temp Sfc Temp Sub Temp Dew Temp Wind Precip Traffic Updated
Sensor [A]: Atmospheric - 70.7 - - 49.6 14.9 / SW - - 10/25/2014 3:32:48 PM
Sensor [0]: US30 Westbound Driving Dry - 82.4 - - - - 0 / 9.9 10/25/2014 3:32:48 PM
Sensor [1]: US30 Eastbound Driving Dry - 82.4 - - - - 0 / 9.9 10/25/2014 3:32:48 PM
6-US23 @ SLM 11.2 (200005) Status Air Temp Sfc Temp Sub Temp Dew Temp Wind Precip Traffic Updated
Sensor [A]: Atmospheric - - - - - 14.9 / W - - 10/25/2014 3:32:51 PM
7-US30 Bypass @ SR4 (200006) Status Air Temp Sfc Temp Sub Temp Dew Temp Wind Precip Traffic Updated
Sensor [A]: Atmospheric - 60.6 - - 51.8 9.3 / SW - - 10/25/2014 11:18:36 AM
Sensor [0]: US30 East Bound Driving Lane No Report - - - - - - 20 / 60.9 10/25/2014 11:18:36 AM
Sensor [1]: US30 West Bound Driving Lane No Report - - - - - - 80 / 158.4 10/25/2014 11:18:36 AM
8-Huron County Garage (200007) Status Air Temp Sfc Temp Sub Temp Dew Temp Wind Precip Traffic Updated
Sensor [A]: Atmospheric - 70.3 - - 52.2 15.5 / W - - 10/25/2014 3:31:18 PM
Sensor [0]: US250 NB Lane Dry - 89.2 - - - - 6 / 57.8 10/25/2014 3:31:18 PM
Sensor [1]: US250 SB Lane Dry - 79.7 - - - - 8 / 55.9 10/25/2014 3:31:18 PM
9-I77 MM 109 @ Belden Village (200008) Status Air Temp Sfc Temp Sub Temp Dew Temp Wind Precip Traffic Updated
Sensor [A]: Atmospheric - 69.8 - - 52.2 7.5 / NW - - 10/25/2014 3:32:20 PM
10-SR5@SR45 (200009) Status Air Temp Sfc Temp Sub Temp Dew Temp Wind Precip Traffic Updated
Sensor [A]: Atmospheric - 69.6 - - 50.0 13.7 / SW - - 10/25/2014 3:30:33 PM
Sensor [0]: EB Driving Dry - 88.7 59.9 - - - - 10/25/2014 3:30:33 PM
Sensor [1]: SR5 EB Passing Dry - 87.8 - - - - - 10/25/2014 3:30:33 PM
Sensor [2]: SR5 WB Passing Bridgedeck Dry - 86.9 - - - - - 10/25/2014 3:30:33 PM
11-SR36@SR206 (200010) Status Air Temp Sfc Temp Sub Temp Dew Temp Wind Precip Traffic Updated
Sensor [A]: Atmospheric - 67.6 - - 53.6 10.6 / SW - - 10/25/2014 3:31:26 PM
Sensor [0]: US36 EB Dry - 87.8 - - - - - 10/25/2014 3:31:26 PM
12- US 33 @ MM 11.5 (200011) Status Air Temp Sfc Temp Sub Temp Dew Temp Wind Precip Traffic Updated
Sensor [A]: Atmospheric - 70.7 - - 57.0 5.0 / W - - 10/25/2014 3:31:40 PM
Sensor [0]: US33 EB Driving Dry - 80.2 57.7 - - - - 10/25/2014 3:31:40 PM
Sensor [1]: US33 WB Driving Lane Bridgedeck Dry - 77.9 - - - - - 10/25/2014 3:31:40 PM
13-Knox County Garage (200012) Status Air Temp Sfc Temp Sub Temp Dew Temp Wind Precip Traffic Updated
Sensor [A]: Atmospheric - 70.7 - - 54.3 9.9 / SW - - 10/25/2014 3:32:21 PM
Sensor [0]: SR-3 NB Driving Dry - 82.4 62.6 - - - 0 / 9.9 10/25/2014 3:32:21 PM
Sensor [1]: SR-3 SB Driving Dry - 82.4 - - - - 0 / 9.9 10/25/2014 3:32:21 PM
14-SR13@CR26N/Sheridan Rd (200013) Status Air Temp Sfc Temp Sub Temp Dew Temp Wind Precip Traffic Updated
Sensor [A]: Atmospheric - 67.8 - - 54.3 7.5 / W - - 10/25/2014 3:32:24 PM
Sensor [0]: SR13 Eastbound Dry - 82.4 - - - - - 10/25/2014 3:32:24 PM
Sensor [1]: SR13 Westbound Dry - 82.4 - - - - - 10/25/2014 3:32:24 PM
15-US35 @ SR62 (200014) Status Air Temp Sfc Temp Sub Temp Dew Temp Wind Precip Traffic Updated
Sensor [A]: Atmospheric - 66.9 - - 51.8 16.8 / W - - 10/25/2014 3:33:04 PM
Sensor [0]: US35 EB Driving Dry - 86.0 60.8 - - - - 10/25/2014 3:33:04 PM
Sensor [1]: US35 WB Driving Dry - 90.5 - - - - - 10/25/2014 3:33:04 PM
Sensor [2]: SR62 NB Bridgedeck Dry - 86.9 - - - - - 10/25/2014 3:33:04 PM
Sensor [3]: SR62 NB Bridgedeck Dry - 82.4 - - - - - 10/25/2014 3:33:04 PM
Sensor [4]: US35 EB Driving Dry - 80.6 - - - - - 10/25/2014 3:33:04 PM
16-SR-752 @ 1.3 Pickaway County (200015) Status Air Temp Sfc Temp Sub Temp Dew Temp Wind Precip Traffic Updated
Sensor [A]: Atmospheric - 70.3 - - 56.5 10.6 / SW - - 10/25/2014 3:30:53 PM
17-US23 @ E. Fairground Road Overpass (200016) Status Air Temp Sfc Temp Sub Temp Dew Temp Wind Precip Traffic Updated
Sensor [A]: Atmospheric - 72.1 - - 52.2 9.3 / NW - - 10/25/2014 3:29:57 PM
Sensor [0]: US23 NorthBound Passing Approach Dry - 77.2 - - - - - 10/25/2014 3:29:57 PM
Sensor [1]: US23 SouthBound Passing Bridgedeck Trace Moisture - 81.1 56.7 - - - 34 / 57.2 10/25/2014 3:29:57 PM
18-US33 @ SR739 (200017) Status Air Temp Sfc Temp Sub Temp Dew Temp Wind Precip Traffic Updated
Sensor [A]: Atmospheric - 72.1 - - 50.7 16.8 / N - - 10/25/2014 3:30:46 PM
Sensor [1]: US33 EB Driving Dry - 89.6 - - - - - 10/25/2014 3:30:46 PM
Sensor [2]: US33 EB Passing Dry - 90.5 - - - - - 10/25/2014 3:30:46 PM
Sensor [3]: US33 WB Passing Dry - 93.2 - - - - - 10/25/2014 3:30:46 PM
Sensor [4]: US33 WB Driving Dry - 84.2 - - - - - 10/25/2014 3:30:46 PM
Sensor [5]: SR739 NB Bridgedeck Dry - 84.2 - - - - - 10/25/2014 3:30:46 PM
19-US68 @ SLM 1.4 (200018) Status Air Temp Sfc Temp Sub Temp Dew Temp Wind Precip Traffic Updated
Sensor [A]: Atmospheric - 72.5 - - 54.9 15.5 / NW - - 10/25/2014 3:33:01 PM
Sensor [0]: US68 SB Driving Lane Dry - 83.3 72.9 - - - - 10/25/2014 3:33:01 PM
Sensor [1]: US68 NB Driving Lane Dry - 81.9 - - - - - 10/25/2014 3:33:01 PM
Sensor [2]: US68 NB Driving Lane Bridgedeck Dry - 81.7 - - - - - 10/25/2014 3:33:01 PM
20-SR502 @ SLM 0.5 (200019) Status Air Temp Sfc Temp Sub Temp Dew Temp Wind Precip Traffic Updated
Sensor [A]: Atmospheric - 73.2 - - 52.5 13.0 / E - - 10/25/2014 3:32:43 PM
Sensor [0]: SR502 EB Lane Dry - 86.0 60.8 - - - 0 / 9.9 10/25/2014 3:32:43 PM
21-US33 @ SR540 (200020) Status Air Temp Sfc Temp Sub Temp Dew Temp Wind Precip Traffic Updated
Sensor [A]: Atmospheric - 71.1 - - 49.8 12.4 / SW - - 10/25/2014 3:10:30 PM
Sensor [0]: US-33 East Bound Driving Lane Dry - 86.0 60.8 - - - 3 / 55.9 10/25/2014 3:10:30 PM
Sensor [1]: US-33 West Bound Passing Lane Wet - 82.4 - - - - 0 / 52.2 10/25/2014 3:10:30 PM
22-SR29 @ SLM 0.8 (200021) Status Air Temp Sfc Temp Sub Temp Dew Temp Wind Precip Traffic Updated
Sensor [A]: Atmospheric - 57.9 - - 50.0 - - - 9/18/2014 9:22:00 AM
Sensor [0]: SR29 EB Lane Error - - 74.1 - - - 0 / 5.0 9/18/2014 9:22:00 AM
Sensor [1]: SR29 WB Lane Error - - - - - - 1 / 5.0 9/18/2014 9:22:00 AM
23-SR41 @ SR136 Adams County (200022) Status Air Temp Sfc Temp Sub Temp Dew Temp Wind Precip Traffic Updated
Sensor [A]: Atmospheric - 68.2 - - 56.5 5.6 / SW - - 10/25/2014 3:33:23 PM
Sensor [0]: SR136 NB Lane Dry - 91.4 59.0 - - - - 10/25/2014 3:33:23 PM
Sensor [1]: SR136 SB Lane Dry - 91.4 - - - - - 10/25/2014 3:33:23 PM
24-US68@SR125 (200023) Status Air Temp Sfc Temp Sub Temp Dew Temp Wind Precip Traffic Updated
Sensor [A]: Atmospheric - 72.7 - - 13.1 3.7 / N - - 10/25/2014 3:17:53 PM
Sensor [0]: NB US68 Dry - 93.2 - - - - - 10/25/2014 3:17:53 PM
Sensor [1]: SB US68 Dry - 84.2 - - - - - 10/25/2014 3:17:53 PM
25-Highland County Garage (200024) Status Air Temp Sfc Temp Sub Temp Dew Temp Wind Precip Traffic Updated
Sensor [A]: Atmospheric - 68.4 - - 56.1 9.9 / SW - - 10/25/2014 3:32:58 PM
26-SR32 @ US35 (200025) Status Air Temp Sfc Temp Sub Temp Dew Temp Wind Precip Traffic Updated
Sensor [A]: Atmospheric - 67.8 - - 54.9 8.7 / SW - - 10/25/2014 3:33:00 PM
Sensor [0]: US 35 WB Driving Lane Dry - 81.5 - - - - 21 / 62.1 10/25/2014 3:33:00 PM
Sensor [1]: US 35 EB Driving Lane Dry - 81.5 - - - - 26 / 59.0 10/25/2014 3:33:00 PM
Sensor [2]: SR32 Eastbound Driving Lane Bridgedeck Dry - 79.7 - - - - 30 / 60.3 10/25/2014 3:33:00 PM
Sensor [3]: SR32 Westbound Passing Lane Approach Dry - 79.7 - - - - 0 / 57.2 10/25/2014 3:33:00 PM
27-US52 @ Ice Creek (200026) Status Air Temp Sfc Temp Sub Temp Dew Temp Wind Precip Traffic Updated
Sensor [A]: Atmospheric - 67.6 - - 51.1 6.2 / SW - - 10/25/2014 3:12:05 PM
Sensor [0]: SR52 East Bound Driving Lane Dry - 77.9 56.8 - - - 45 / 52.8 10/25/2014 3:12:05 PM
Sensor [1]: SR52 East Bound Passing Lane Dry - 79.9 - - - - 10 / 60.3 10/25/2014 3:12:05 PM
Sensor [2]: SR52 West Bound Passing Lane Dry - 83.3 - - - - 12 / 55.9 10/25/2014 3:12:05 PM
28-US23 @ SLM 6.5 (200027) Status Air Temp Sfc Temp Sub Temp Dew Temp Wind Precip Traffic Updated
Sensor [A]: Atmospheric - 68.5 - - 56.3 6.8 / SW - - 10/25/2014 3:23:36 PM
Sensor [0]: US23 NB Driving Dry - 79.3 60.4 - - - - 10/25/2014 3:23:36 PM
Sensor [1]: US23 SB Driving Dry - 79.7 - - - - - 10/25/2014 3:23:36 PM
29-US35 @ MM 14.76 (200028) Status Air Temp Sfc Temp Sub Temp Dew Temp Wind Precip Traffic Updated
Sensor [A]: Atmospheric - 69.4 - - 55.6 7.5 / S - - 10/25/2014 3:33:33 PM
Sensor [0]: SR35 EB Driving Dry - 114.8 - - - - 35 / 62.8 9/8/2014 2:47:00 PM
Sensor [1]: SR35 WB Passing Error - - - - - - 0 / 47.2 9/8/2014 2:47:00 PM
Sensor [2]: SR35 WB Driving Dry - 68.0 - - - - 1 / 52.2 9/8/2014 2:47:00 PM
Sensor [3]: Bridge Deck Simulator Error - - 50.4 - - - 0 / 55.9 9/8/2014 2:47:00 PM
30-US23 @ SLM 9.2 (200029) Status Air Temp Sfc Temp Sub Temp Dew Temp Wind Precip Traffic Updated
Sensor [A]: Atmospheric - 59.0 - - 42.4 3.7 / W - - 10/25/2014 3:31:27 PM
Sensor [0]: US23 NB Passing Dry - 94.1 - - - - 5 / 34.2 10/25/2014 3:31:27 PM
Sensor [1]: US23 SB Passing Dry - 92.3 - - - - 8 / 59.0 10/25/2014 3:31:27 PM
Sensor [2]: US23 SB Driving Dry - 92.3 - - - - 24 / 55.9 10/25/2014 3:31:27 PM
31-USR 50 MM 17.68 (200030) Status Air Temp Sfc Temp Sub Temp Dew Temp Wind Precip Traffic Updated
Sensor [A]: Atmospheric - 67.8 - - 51.3 5.6 / NE - - 10/25/2014 3:30:41 PM
32-USR 35 @ SR 160 (200031) Status Air Temp Sfc Temp Sub Temp Dew Temp Wind Precip Traffic Updated
Sensor [A]: Atmospheric - 68.0 - - 51.4 3.7 / SW - - 10/25/2014 3:30:43 PM
Sensor [0]: SR35 NB Driving Dry - 80.6 - - - - - 10/25/2014 3:30:43 PM
Sensor [1]: SR35 SB Driving Dry - 78.8 - - - - - 10/25/2014 3:30:43 PM
33-US33@mm9.2 (200032) Status Air Temp Sfc Temp Sub Temp Dew Temp Wind Precip Traffic Updated
Sensor [A]: Atmospheric - 69.1 - - 53.8 8.1 / SW - - 10/25/2014 3:32:26 PM
Sensor [0]: US33 EB Driving Dry - 85.1 - - - - - 10/25/2014 3:32:26 PM
34-US33 @ OH7 (200033) Status Air Temp Sfc Temp Sub Temp Dew Temp Wind Precip Traffic Updated
Sensor [A]: Atmospheric - 65.7 - - 51.3 3.7 / W - - 10/25/2014 3:33:16 PM
Sensor [0]: US-33 EB Driving Departure Dry - 84.2 67.1 - - - - 10/25/2014 3:33:16 PM
Sensor [1]: US-33 EB Passing Bridgedeck Trace Moisture - 76.1 - - - - - 10/25/2014 3:33:16 PM
Sensor [2]: US-33 WB Driving Approach Dry - 80.6 - - - - - 10/25/2014 3:33:16 PM
35-SR7 @ SLM12.7 (200034) Status Air Temp Sfc Temp Sub Temp Dew Temp Wind Precip Traffic Updated
Sensor [A]: Atmospheric - 68.4 - - 51.4 6.2 / E - - 10/25/2014 3:33:14 PM
Sensor [0]: SR7 NB Driving Lane Dry - 80.6 60.8 - - - - 10/25/2014 3:33:14 PM
Sensor [1]: SR7 SB Driving Lane Dry - 80.6 - - - - - 10/25/2014 3:33:14 PM
36-SR60 @ Monestary Rd (200035) Status Air Temp Sfc Temp Sub Temp Dew Temp Wind Precip Traffic Updated
Sensor [A]: Atmospheric - 66.4 - - 52.3 9.3 / SW - - 10/25/2014 3:33:12 PM
Sensor [0]: SR60 EB Lane Dry - 79.7 58.1 - - - - 10/25/2014 3:33:12 PM
Sensor [1]: SR60 WB Lane Dry - 79.7 - - - - - 10/25/2014 3:33:12 PM
37-SR32@SR160 (200036) Status Air Temp Sfc Temp Sub Temp Dew Temp Wind Precip Traffic Updated
Sensor [A]: Atmospheric - 68.5 - - 52.3 9.3 / S - - 10/25/2014 3:32:28 PM
Sensor [0]: SR32 WB Passing Bridgedeck Dry - 78.6 - - - - - 10/25/2014 3:32:28 PM
Sensor [1]: SR32 EB Driving Dry - 75.2 - - - - - 10/25/2014 3:32:28 PM
Sensor [2]: SR32 WB Driving Bridgedeck Dry - 73.4 - - - - - 10/25/2014 3:32:28 PM
38-SR43@SR9 (200037) Status Air Temp Sfc Temp Sub Temp Dew Temp Wind Precip Traffic Updated
Sensor [A]: Atmospheric - 65.5 - - 51.3 14.3 / W - - 10/25/2014 3:30:33 PM
Sensor [0]: SR43 NB Dry - 77.0 59.0 - - - - 10/25/2014 3:30:33 PM
Sensor [1]: SR9 SB Dry - 77.0 - - - - - 10/25/2014 3:30:33 PM
39-SR11@SR267 (200038) Status Air Temp Sfc Temp Sub Temp Dew Temp Wind Precip Traffic Updated
Sensor [A]: Atmospheric - 66.4 - - 50.5 3.7 / W - - 10/25/2014 3:30:34 PM
Sensor [0]: SR11 NB Driving Dry - 78.8 57.2 - - - - 10/25/2014 3:30:34 PM
Sensor [1]: SR11 SB Driving Dry - 78.8 - - - - - 10/25/2014 3:30:34 PM
40-Clinton County Garage (200039) Status Air Temp Sfc Temp Sub Temp Dew Temp Wind Precip Traffic Updated
Sensor [A]: Atmospheric - 69.1 - - 55.2 - - - 10/25/2014 3:33:11 PM
41- SR62@SR206 (200042) Status Air Temp Sfc Temp Sub Temp Dew Temp Wind Precip Traffic Updated
Sensor [A]: Atmospheric - 72.3 - - 54.1 8.7 / W - - 10/25/2014 3:31:16 PM
Sensor [0]: SR62 EB Dry - 95.0 - - - - 7 / 32.9 10/25/2014 3:31:16 PM
Sensor [1]: SR62 WB Dry - 89.6 - - - - 5 / 44.7 10/25/2014 3:31:16 PM
42- SR7@ SLM14.65 (200041) Status Air Temp Sfc Temp Sub Temp Dew Temp Wind Precip Traffic Updated
Sensor [A]: Atmospheric - 66.2 - - 50.4 5.0 / SE - - 10/25/2014 3:30:35 PM
Sensor [0]: SR7 Passing Dry - 75.2 59.0 - - - - 10/25/2014 3:30:35 PM
Sensor [1]: SR7 NB Driving Dry - 71.6 - - - - - 10/25/2014 3:30:35 PM
Sensor [2]: SR7 SB Driving Dry - 71.6 - - - - - 10/25/2014 3:30:35 PM
51-I-70 @ 1.0 MM (200050) Status Air Temp Sfc Temp Sub Temp Dew Temp Wind Precip Traffic Updated
Sensor [A]: Atmospheric - 71.6 - - 54.1 9.3 / NW - - 10/25/2014 3:30:55 PM
Sensor [0]: IR70 East Bound Passing Lane Dry - 88.7 54.3 - - - 56 / 62.1 10/25/2014 3:30:55 PM
52-18 MM MOT/PRE (200051) Status Air Temp Sfc Temp Sub Temp Dew Temp Wind Precip Traffic Updated
Sensor [A]: Atmospheric - 74.7 - - 47.1 11.8 / SW - - 10/25/2014 3:30:57 PM
Sensor [0]: IR70 WB Passing Dry - 94.1 - - - - 56 / 57.8 10/25/2014 3:30:57 PM
Sensor [1]: IR70 EB Driving Dry - 84.2 - - - - 0 / 62.1 10/25/2014 3:30:57 PM
Sensor [2]: IR70 WB Driving Dry - 84.2 59.0 - - - 26 / 62.8 10/25/2014 3:30:57 PM
53-CLA-70 @ I675 ***Under Construction*** (200052) Status Air Temp Sfc Temp Sub Temp Dew Temp Wind Precip Traffic Updated
Sensor [A]: Atmospheric - 73.2 - - 54.1 12.4 / W - - 10/25/2014 3:31:19 PM
54-IR70 MM 62 (200053) Status Air Temp Sfc Temp Sub Temp Dew Temp Wind Precip Traffic Updated
Sensor [A]: Atmospheric - 72.0 - - 55.6 8.7 / W - - 10/25/2014 3:32:45 PM
Sensor [0]: I70 EB Driving Dry - 80.6 59.0 - - - 0 / 9.9 10/25/2014 3:32:45 PM
Sensor [1]: I70 WB Passing Dry - 82.4 - - - - 0 / 9.9 10/25/2014 3:32:45 PM
55-IR70 MM 142 (200054) Status Air Temp Sfc Temp Sub Temp Dew Temp Wind Precip Traffic Updated
Sensor [A]: Atmospheric - 68.2 - - 55.4 3.7 / S - - 10/25/2014 3:30:59 PM
Sensor [0]: IR70 WB Passing Dry - 88.7 57.2 - - - 48 / 64.0 10/25/2014 3:30:59 PM
Sensor [1]: IR70 EB Driving Dry - 77.0 - - - - 35 / 39.8 10/25/2014 3:30:59 PM
Sensor [2]: IR70 WB Driving Dry - 78.8 - - - - 25 / 44.1 10/25/2014 3:30:59 PM
56-IR70 MM 169 (200055) Status Air Temp Sfc Temp Sub Temp Dew Temp Wind Precip Traffic Updated
Sensor [A]: Atmospheric - 68.0 - - 54.7 11.2 / W - - 10/25/2014 3:28:46 PM
Sensor [0]: IR70 EB Driving Dry - 75.2 57.2 - - - 4 / 18.0 10/25/2014 3:28:46 PM
Sensor [1]: IR70 WB Driving Dry - 78.8 - - - - 25 / 62.8 10/25/2014 3:28:46 PM
57-IR70 MM 198 (200056) Status Air Temp Sfc Temp Sub Temp Dew Temp Wind Precip Traffic Updated
Sensor [A]: Atmospheric - 66.9 - - 52.2 7.5 / SE - - 10/25/2014 3:31:06 PM
Sensor [0]: IR70 EB Driving Dry - 77.9 63.5 - - - 40 / 57.2 10/25/2014 3:31:06 PM
Sensor [1]: IR70 EB Passing Dry - 77.9 - - - - 1 / 26.7 10/25/2014 3:31:06 PM
Sensor [2]: IR70 WB Passing Dry - 79.7 - - - - 20 / 57.8 10/25/2014 3:31:06 PM
58-IR470 MM 6 (200057) Status Air Temp Sfc Temp Sub Temp Dew Temp Wind Precip Traffic Updated
Sensor [A]: Atmospheric - 67.1 - - 51.1 6.2 / NW - - 10/25/2014 3:25:53 PM
Sensor [0]: IR470 EB Driving Dry - 73.4 59.0 - - - 30 / 44.1 10/25/2014 3:25:53 PM
Sensor [1]: IR470 WB Driving Dry - 73.4 - - - - 10 / 64.0 10/25/2014 3:25:53 PM
59- US 127 @ SR 744 (200058) Status Air Temp Sfc Temp Sub Temp Dew Temp Wind Precip Traffic Updated
Sensor [A]: Atmospheric - 72.9 - - 55.4 2.5 / W - - 10/25/2014 3:31:08 PM
Sensor [0]: US127 NB Bridgedeck Dry - 85.6 - - - - 55 / 64.0 10/25/2014 3:31:08 PM
Sensor [1]: US127 SB Bridgedeck Dry - 84.9 - - - - 31 / 70.8 10/25/2014 3:31:08 PM
60-IR71 MM 62 (200059) Status Air Temp Sfc Temp Sub Temp Dew Temp Wind Precip Traffic Updated
Sensor [A]: Atmospheric - 69.3 - - 54.1 12.4 / S - - 10/25/2014 3:31:49 PM
Sensor [1]: IR71 NB Passing Bridgedeck Dry - 86.0 - - - - 16 / 65.2 10/25/2014 3:31:49 PM
Sensor [2]: IR71 SB Passing Dry - 90.5 - - - - 18 / 64.0 10/25/2014 3:31:49 PM
Sensor [3]: IR71 SB Center Dry - 80.6 - - - - 0 / 9.9 10/25/2014 3:31:49 PM
Sensor [4]: IR71 NB Driving Dry - 78.8 - - - - 1 / 9.9 10/25/2014 3:31:49 PM
61-IR71 MM 79 (200060) Status Air Temp Sfc Temp Sub Temp Dew Temp Wind Precip Traffic Updated
Sensor [A]: Atmospheric - 69.8 - - 53.8 14.3 / W - - 10/25/2014 3:31:52 PM
Sensor [0]: IR71 NB Passing Dry - 85.1 76.1 - - - 60 / 64.0 10/25/2014 3:31:52 PM
Sensor [1]: IR71 SB Driving Wet - 86.9 - - - - 44 / 60.9 10/25/2014 3:31:52 PM
Sensor [2]: IR71 NB Driving Dry - 80.6 - - - - 0 / 9.9 10/25/2014 3:31:52 PM
62- Cemetary Rd. Over I-270 (200061) Status Air Temp Sfc Temp Sub Temp Dew Temp Wind Precip Traffic Updated
Sensor [A]: Atmospheric - 71.8 - - 54.3 10.6 / W - - 10/25/2014 3:30:54 PM
Sensor [0]: I270 NB Driving Dry - 93.2 75.9 - - - 25 / 34.2 10/25/2014 3:30:54 PM
Sensor [2]: Cemetary Rd WB Passing Dry - 87.8 - - - - 0 / 59.0 10/25/2014 3:30:54 PM
63-I71 MM 144 ***Under Construction*** (200062) Status Air Temp Sfc Temp Sub Temp Dew Temp Wind Precip Traffic Updated
Sensor [A]: Atmospheric - 60.3 - - 47.3 6.2 / E - - 4/9/2013 9:12:09 AM
Sensor [0]: I71 NB Driving (Deck) Dry - 68.9 46.9 - - - 46 / 55.9 4/9/2013 9:12:09 AM
Sensor [1]: I71 NB Passing (Approach) Dry - 60.1 - - - - 0 / 5.0 4/9/2013 9:12:09 AM
Sensor [3]: I71 SB Driving (Departure) Dry - 63.3 - - - - 0 / 65.2 4/9/2013 9:12:09 AM
64-I71 MM 158 (200063) Status Air Temp Sfc Temp Sub Temp Dew Temp Wind Precip Traffic Updated
Sensor [A]: Atmospheric - 70.7 - - 50.9 10.6 / SW - - 10/25/2014 3:32:29 PM
Sensor [0]: IR71 NB Driving Dry - 80.6 59.0 - - - 0 / 9.9 10/25/2014 3:32:29 PM
Sensor [1]: IR71 SB Driving Dry - 82.4 - - - - 0 / 9.9 10/25/2014 3:32:29 PM
65-IR71 MM 174 (200064) Status Air Temp Sfc Temp Sub Temp Dew Temp Wind Precip Traffic Updated
Sensor [A]: Atmospheric - 70.5 - - 51.4 6.8 / SW - - 10/25/2014 3:32:36 PM
Sensor [0]: IR71 NB Driving Dry - 85.1 80.6 - - - 38 / 60.9 10/25/2014 3:32:36 PM
Sensor [1]: IR71 NB Center Dry - 85.8 - - - - 71 / 62.8 10/25/2014 3:32:36 PM
Sensor [2]: IR71 SB Center Dry - 88.7 - - - - 61 / 62.1 10/25/2014 3:32:36 PM
66-IR71 MM 195.55 (200065) Status Air Temp Sfc Temp Sub Temp Dew Temp Wind Precip Traffic Updated
Sensor [A]: Atmospheric - 70.7 - - 50.9 9.9 / SW - - 10/25/2014 3:30:55 PM
Sensor [0]: IR71 North Bound Driving Lane Dry - 86.9 59.0 - - - 4 / 55.3 10/25/2014 3:30:55 PM
Sensor [1]: IR71 South Bound Passing Lane Dry - 89.6 - - - - 0 / 54.1 10/25/2014 3:30:55 PM
Sensor [2]: IR71 South Bound Driving Lane Dry - 84.2 - - - - 0 / 21.7 10/25/2014 3:30:55 PM
67-IR71 MM 209 (200066) Status Air Temp Sfc Temp Sub Temp Dew Temp Wind Precip Traffic Updated
Sensor [A]: Atmospheric - 70.7 - - 50.2 7.5 / SW - - 10/25/2014 3:32:38 PM
Sensor [0]: IR71 NB Driving Dry - 82.4 59.0 - - - 0 / 9.9 10/25/2014 3:32:38 PM
Sensor [1]: IR71 SB Driving Bridgedeck Dry - 80.6 - - - - 0 / 9.9 10/25/2014 3:32:38 PM
68-IR271 @ IR77 (200067) Status Air Temp Sfc Temp Sub Temp Dew Temp Wind Precip Traffic Updated
Sensor [A]: Atmospheric - 68.5 - - 49.8 14.3 / W - - 10/25/2014 3:32:41 PM
Sensor [0]: I271 SB Passing Bridgedeck Dry - 90.0 - - - - 28 / 55.9 10/25/2014 3:32:41 PM
69-IR275 MM 21 (200068) Status Air Temp Sfc Temp Sub Temp Dew Temp Wind Precip Traffic Updated
Sensor [A]: Atmospheric - 75.0 - - 55.8 3.1 / S - - 10/25/2014 3:31:54 PM
Sensor [0]: I275 MM21 NB Driving Dry - 82.4 57.4 - - - 42 / 60.3 10/25/2014 3:31:54 PM
70-IR275 HAM/CLER (200069) Status Air Temp Sfc Temp Sub Temp Dew Temp Wind Precip Traffic Updated
Sensor [A]: Atmospheric - 73.2 - - 56.5 1.2 / N - - 10/25/2014 3:30:09 PM
Sensor [1]: I275 WB Driving Dry - 82.4 - - - - 0 / 60.9 10/25/2014 3:30:09 PM
71-I675 MONT/GRE (200070) Status Air Temp Sfc Temp Sub Temp Dew Temp Wind Precip Traffic Updated
Sensor [A]: Atmospheric - 72.0 - - 53.6 7.5 / S - - 10/25/2014 3:31:21 PM
Sensor [0]: I675 NB Center Dry - - - - - - 46 / 60.9 10/25/2014 3:31:21 PM
Sensor [1]: I675 SB Passing Dry - 80.6 - - - - 97 / 62.8 10/25/2014 3:31:21 PM
72-18 MM BUT/HAM (200071) Status Air Temp Sfc Temp Sub Temp Dew Temp Wind Precip Traffic Updated
Sensor [A]: Atmospheric - 74.5 - - 54.0 5.6 / S - - 10/25/2014 3:31:10 PM
Sensor [0]: IR75 NB Passing Dry - 92.3 62.6 - - - - 10/25/2014 3:31:10 PM
Sensor [1]: IR75 SB Driving Dry - 86.0 - - - - - 10/25/2014 3:31:10 PM
73-I75mm27.5 SB (200072) Status Air Temp Sfc Temp Sub Temp Dew Temp Wind Precip Traffic Updated
Sensor [A]: Atmospheric - 71.4 - - 56.5 5.0 / SW - - 10/25/2014 3:30:45 PM
Sensor [0]: IR75 NB Driving Dry - 84.2 - - - - - 10/25/2014 3:30:45 PM
Sensor [1]: IR75 SB Driving Dry - 84.2 - - - - - 10/25/2014 3:30:45 PM
74-IR75 MM 40 (200073) Status Air Temp Sfc Temp Sub Temp Dew Temp Wind Precip Traffic Updated
Sensor [A]: Atmospheric - 71.1 - - 55.9 10.6 / W - - 10/25/2014 3:31:23 PM
Sensor [0]: IR75 NB Driving Dry - 82.4 59.0 - - - 26 / 14.3 10/25/2014 3:31:23 PM
Sensor [1]: IR75 SB Driving Dry - 82.4 - - - - 9 / 19.3 10/25/2014 3:31:23 PM
75-SR16@COS/MUS (200074) Status Air Temp Sfc Temp Sub Temp Dew Temp Wind Precip Traffic Updated
Sensor [A]: Atmospheric - 69.8 - - 55.0 8.7 / W - - 10/25/2014 3:30:44 PM
Sensor [0]: SR16 EB Driving Bridgedeck Dry - 85.1 62.6 - - - - 10/25/2014 3:30:44 PM
76-IR75 MM 84 (200075) Status Air Temp Sfc Temp Sub Temp Dew Temp Wind Precip Traffic Updated
Sensor [A]: Atmospheric - 73.6 - - 50.7 5.6 / SW - - 10/25/2014 3:32:32 PM
Sensor [0]: IR75 North Bound Driving Lane Dry - 90.5 77.9 - - - 65 / 60.3 10/25/2014 3:32:32 PM
Sensor [1]: IR75 North Bound Passing Lane Dry - 93.2 - - - - 58 / 64.0 10/25/2014 3:32:32 PM
77-IR75 MM 105 (200076) Status Air Temp Sfc Temp Sub Temp Dew Temp Wind Precip Traffic Updated
Sensor [A]: Atmospheric - 72.7 - - 50.2 - - - 10/25/2014 3:31:29 PM
Sensor [0]: IR75 NB Driving Dry - 82.4 54.7 - - - 0 / 9.9 10/25/2014 3:31:29 PM
Sensor [1]: IR75 SB Driving Dry - 82.4 - - - - 0 / 9.9 10/25/2014 3:31:29 PM
78-IR75 MM 119 (200077) Status Air Temp Sfc Temp Sub Temp Dew Temp Wind Precip Traffic Updated
Sensor [A]: Atmospheric - 73.6 - - 50.7 9.3 / W - - 10/25/2014 3:31:32 PM
Sensor [0]: IR75 NB Driving Dry - 84.2 54.5 - - - 0 / 9.9 10/25/2014 3:31:32 PM
Sensor [1]: IR75 SB Driving Dry - 84.2 - - - - 0 / 9.9 10/25/2014 3:31:32 PM
79-IR75 MM 141 (200078) Status Air Temp Sfc Temp Sub Temp Dew Temp Wind Precip Traffic Updated
Sensor [A]: Atmospheric - 73.0 - - 51.3 4.3 / W - - 10/25/2014 3:32:53 PM
Sensor [0]: IR75 NB Driving Dry - 84.2 60.8 - - - 0 / 9.9 10/25/2014 3:32:53 PM
Sensor [1]: IR75 SB Driving Dry - 84.2 - - - - 0 / 9.9 10/25/2014 3:32:53 PM
80-IR77 MM 0 (200079) Status Air Temp Sfc Temp Sub Temp Dew Temp Wind Precip Traffic Updated
Sensor [A]: Atmospheric - 66.6 - - 52.2 3.1 / SW - - 10/25/2014 3:32:05 PM
Sensor [0]: I77 SB Driving Lane Dry - 72.1 - - - - - 10/25/2014 3:32:05 PM
81-IR77 MM 16 (200080) Status Air Temp Sfc Temp Sub Temp Dew Temp Wind Precip Traffic Updated
Sensor [A]: Atmospheric - 66.0 - - 52.0 6.2 / SE - - 10/25/2014 3:32:23 PM
Sensor [0]: IR77 SB Driving Dry - 69.6 - - - - - 10/25/2014 3:32:23 PM
82-IR77 MM 36 (200081) Status Air Temp Sfc Temp Sub Temp Dew Temp Wind Precip Traffic Updated
Sensor [A]: Atmospheric - 66.2 - - 53.6 5.6 / S - - 10/25/2014 3:24:37 PM
Sensor [0]: IR77 SB Driving Trace Moisture - 72.3 56.8 - - - 27 / 64.0 10/25/2014 3:24:37 PM
Sensor [1]: IR77 NB Driving Dry - 71.6 - - - - 0 / 52.8 10/25/2014 3:24:37 PM
83-IR77 MM 59 (200082) Status Air Temp Sfc Temp Sub Temp Dew Temp Wind Precip Traffic Updated
Sensor [A]: Atmospheric - 68.5 - - 53.4 8.1 / W - - 10/25/2014 3:33:17 PM
Sensor [0]: IR77 NB Driving Dry - 78.8 57.2 - - - 0 / 5.0 10/25/2014 3:33:17 PM
Sensor [1]: IR77 SB Driving Dry - 75.2 - - - - 0 / 5.0 10/25/2014 3:33:17 PM
84-IR77 MM 93 UNDER CONSTRUCTION (200083) Status Air Temp Sfc Temp Sub Temp Dew Temp Wind Precip Traffic Updated
Sensor [A]: Atmospheric - 69.3 - - 53.8 8.7 / SW - - 10/25/2014 3:26:11 PM
Sensor [0]: IR77 North Bound Driving Lane No Report - - - - - - 0 / 52.8 9/24/2014 11:16:29 PM
Sensor [1]: IR77 North Bound Passing Lane Error - - - - - - 0 / 6.8 9/22/2014 10:50:39 AM
Sensor [2]: IR77 South Bound Passing Lane Bridge Error - - - - - - 0 / 9.9 9/22/2014 10:50:39 AM
Sensor [3]: IR77 South Bound Driving Lane Bridge Error - - - - - - 64 / 65.2 9/22/2014 10:50:39 AM
85-SR2 @ Huron River (200084) Status Air Temp Sfc Temp Sub Temp Dew Temp Wind Precip Traffic Updated
Sensor [A]: Atmospheric - 71.1 - - 52.7 9.3 / S - - 10/25/2014 3:33:25 PM
Sensor [0]: SR2 WB Passing Dry - 87.8 59.0 - - - 8959 / 154.1 10/25/2014 3:33:25 PM
Sensor [1]: SR2 EB Driving Departure Dry - 82.4 - - - - 1 / 5.0 10/25/2014 3:33:25 PM
86-IR90 @ SR57 (200085) Status Air Temp Sfc Temp Sub Temp Dew Temp Wind Precip Traffic Updated
Sensor [A]: Atmospheric - 65.5 - - 54.1 8.7 / W - - 10/25/2014 3:31:40 PM
Sensor [0]: IR90 EB Driving No Report - - - - - - 34 / 6.2 10/25/2014 3:31:40 PM
Sensor [1]: IR90 WB Driving Dry - 79.0 - - - - 0 / 5.0 10/25/2014 3:31:40 PM
87-IR90 ATB/LAKE (200086) Status Air Temp Sfc Temp Sub Temp Dew Temp Wind Precip Traffic Updated
Sensor [A]: Atmospheric - 61.2 - - 53.4 7.5 / W - - 10/25/2014 3:33:26 PM
Sensor [0]: I90 EB Passing Dry - 74.8 57.2 - - - 92 / 62.1 10/25/2014 3:33:26 PM
Sensor [1]: I90 EB Driving Dry - 71.6 - - - - 2 / 5.0 10/25/2014 3:33:26 PM
Sensor [2]: I90 WB Passing Dry - 73.4 - - - - 52 / 59.0 10/25/2014 3:33:26 PM
88-IR90 @ SR11 (200087) Status Air Temp Sfc Temp Sub Temp Dew Temp Wind Precip Traffic Updated
Sensor [A]: Atmospheric - 60.8 - - 54.5 15.5 / W - - 10/25/2014 3:31:46 PM
Sensor [0]: IR90 EB Passing Dry - 111.2 - - - - 0 / 158.4 10/25/2014 3:31:46 PM
Sensor [1]: IR90 WB Passing Dry - 103.1 - - - - 31 / 65.2 10/25/2014 3:31:46 PM
89-IR90 @ PA Line (200088) Status Air Temp Sfc Temp Sub Temp Dew Temp Wind Precip Traffic Updated
Sensor [A]: Atmospheric - 59.9 - - 53.8 11.2 / W - - 10/25/2014 3:34:04 PM
Sensor [0]: IR90 EB Driving Bridgedeck Dry - 65.3 57.4 - - - - 10/25/2014 3:34:04 PM
Sensor [1]: IR90 EB Passing Dry - 65.7 - - - - - 10/25/2014 3:34:04 PM
Sensor [2]: IR90 WB Passing Bridgedeck Dry - 65.8 - - - - - 10/25/2014 3:34:04 PM
Sensor [3]: IR90 WB Driving Dry - 67.8 - - - - - 10/25/2014 3:34:04 PM
90-IR80 @ PA Line (200089) Status Air Temp Sfc Temp Sub Temp Dew Temp Wind Precip Traffic Updated
Sensor [A]: Atmospheric - 68.7 - - 53.4 8.7 / SW - - 10/25/2014 3:33:11 PM
Sensor [0]: IR80 EB Driving Dry - 77.0 57.2 - - - 21 / 49.1 10/25/2014 3:33:11 PM
Sensor [1]: IR80 WB Driving Dry - 78.1 - - - - 0 / 47.8 10/25/2014 3:33:11 PM
91-IR76 MAH/POR (200090) Status Air Temp Sfc Temp Sub Temp Dew Temp Wind Precip Traffic Updated
Sensor [A]: Atmospheric - 69.3 - - 50.4 11.8 / NW - - 10/25/2014 3:33:28 PM
Sensor [0]: IR76 EB Passing Dry - 76.6 57.2 - - - 6 / 9.9 10/25/2014 3:33:28 PM
Sensor [1]: IR76 WB Passing Bridgedeck Trace Moisture - 78.8 - - - - 22 / 55.9 10/25/2014 3:33:28 PM
Sensor [2]: IR76 EB Driving Dry - 78.8 - - - - 17 / 64.0 10/25/2014 3:33:28 PM
Sensor [3]: IR76 WB Driving Bridgedeck Dry - 77.0 - - - - 43 / 64.0 10/25/2014 3:33:28 PM
92-IR76 POR/SUM (200091) Status Air Temp Sfc Temp Sub Temp Dew Temp Wind Precip Traffic Updated
Sensor [A]: Atmospheric - 69.1 - - 51.8 6.8 / SW - - 10/25/2014 3:20:55 PM
Sensor [0]: IR76 EB passing Bridgedeck Dry - 84.2 - - - - 0 / 65.2 10/25/2014 3:20:55 PM
Sensor [2]: IR76 WB Driving Dry - 78.8 - - - - 0 / 64.0 10/25/2014 3:20:55 PM
94-SR11 ATB/TRUM (200093) Status Air Temp Sfc Temp Sub Temp Dew Temp Wind Precip Traffic Updated
Sensor [A]: Atmospheric - 67.1 - - 52.0 5.6 / W - - 10/25/2014 3:32:56 PM
Sensor [0]: SR11 NB Driving No Report - - - - - - 22 / 64.0 10/25/2014 3:32:56 PM
Sensor [1]: SR11 SB Driving No Report - - - - - - 2 / 9.9 10/25/2014 3:32:56 PM
95-SR11 MAH/COL (200094) Status Air Temp Sfc Temp Sub Temp Dew Temp Wind Precip Traffic Updated
Sensor [A]: Atmospheric - 66.6 - - 53.1 16.2 / SW - - 10/25/2014 3:31:05 PM
Sensor [0]: SR11 NB Driving Dry - 80.2 56.5 - - - 0 / 64.0 10/25/2014 3:31:05 PM
Sensor [1]: SR11 SB Driving Dry - 78.3 - - - - 0 / 9.9 10/25/2014 3:31:05 PM
97-SR315 @ I270 (200096) Status Air Temp Sfc Temp Sub Temp Dew Temp Wind Precip Traffic Updated
Sensor [A]: Atmospheric - 72.3 - - 54.9 8.7 / NW - - 10/25/2014 3:30:07 PM
Sensor [0]: I270 WB Driving Dry - 90.5 - - - - 4 / 26.7 10/25/2014 3:30:07 PM
Sensor [1]: I270 WB Passing Dry - 82.4 - - - - 0 / 42.3 10/25/2014 3:30:07 PM
Sensor [2]: IR Ice Detection Sensor Dry - - - - - - 6 / 60.3 10/25/2014 3:30:07 PM
98-I270 SB Ramp to SR161 EB (200097) Status Air Temp Sfc Temp Sub Temp Dew Temp Wind Precip Traffic Updated
Sensor [A]: Atmospheric - 70.5 - - 53.4 12.4 / N - - 10/25/2014 3:31:20 PM
Sensor [0]: SR161 WB Passing Bridgedeck Dry - 89.6 - - - - 29 / 60.9 10/25/2014 3:31:20 PM
Sensor [1]: SR161 WB Driving Dry - 88.7 - - - - 0 / 50.3 10/25/2014 3:31:20 PM
Sensor [3]: I270 SB to SR161 EB Flyover Ramp Dry - 80.6 - - - - 106 / 57.8 10/25/2014 3:31:20 PM
99-US30 @ Dalton (200098) Status Air Temp Sfc Temp Sub Temp Dew Temp Wind Precip Traffic Updated
Sensor [A]: Atmospheric - 69.4 - - 51.8 6.8 / E - - 10/25/2014 3:24:00 PM
Sensor [0]: US30E Driving Lane Error - - 61.3 - - - 0 / 50.3 10/25/2014 3:24:00 PM
Sensor [1]: US30E Passing Lane Dry - 79.5 - - - - 26 / 57.2 10/25/2014 3:24:00 PM
Sensor [2]: US30W Passing Lane - Bridgedeck Dry - 90.1 - - - - 11 / 57.8 10/25/2014 3:24:00 PM
Sensor [3]: US30W Driving Lane - Bridgedeck Error - - - - - - 761 / 62.1 10/25/2014 3:24:00 PM
100-SR225 @ Berlin Reservoir (200099) Status Air Temp Sfc Temp Sub Temp Dew Temp Wind Precip Traffic Updated
Sensor [A]: Atmospheric - 50.0 - - 48.2 3.1 / SW - - 10/20/2014 8:28:30 PM
Sensor [0]: SR225 NB Lane Trace Moisture - 52.9 59.0 - - - 0 / 65.2 10/20/2014 8:28:30 PM
Sensor [1]: SR225 SB Bridgedeck No Report - - - - - - 4 / 9.9 10/20/2014 8:28:30 PM
101-SR45 @ Rock Creek (200100) Status Air Temp Sfc Temp Sub Temp Dew Temp Wind Precip Traffic Updated
Sensor [A]: Atmospheric - 68.7 - - 53.6 1.2 / N - - 10/25/2014 3:33:29 PM
102-SR7 @ SR167 East (200101) Status Air Temp Sfc Temp Sub Temp Dew Temp Wind Precip Traffic Updated
Sensor [A]: Atmospheric - 64.9 - - 54.3 7.5 / W - - 10/25/2014 3:32:27 PM
Sensor [0]: SR7 NB Dry - 70.2 - - - - 6 / 42.3 10/25/2014 3:32:27 PM
Sensor [1]: SR7 SB Bridgedeck Dry - 68.9 - - - - 0 / 5.0 10/25/2014 3:32:27 PM
103- I-70 @ SR-79 (200102) Status Air Temp Sfc Temp Sub Temp Dew Temp Wind Precip Traffic Updated
Sensor [A]: Atmospheric - 69.1 - - 55.2 18.0 / SW - - 10/25/2014 3:31:14 PM
Sensor [0]: SR79 NB Bridgedeck Dry - 80.6 59.0 - - - 83 / 51.0 10/25/2014 3:31:14 PM
Sensor [1]: SR79 SB Bridgedeck Dry - 75.2 - - - - 36 / 50.3 10/25/2014 3:31:14 PM
Sensor [2]: IR70 EB Driving Dry - 82.4 - - - - 32 / 60.3 10/25/2014 3:31:14 PM
Sensor [3]: IR70 WB Driving Dry - 80.6 - - - - 40 / 51.0 10/25/2014 3:31:14 PM
104-SR 3 KNOX/Ashland (200103) Status Air Temp Sfc Temp Sub Temp Dew Temp Wind Precip Traffic Updated
Sensor [A]: Atmospheric - 69.1 - - 54.7 11.2 / SW - - 10/25/2014 3:25:01 PM
Sensor [0]: SR3 SB Dry - 77.9 57.4 - - - 2 / 52.2 10/25/2014 3:25:01 PM
105-IR70/IR75 (200104) Status Air Temp Sfc Temp Sub Temp Dew Temp Wind Precip Traffic Updated
Sensor [A]: Atmospheric - 72.5 - - 62.4 13.0 / SW - - 10/25/2014 3:31:12 PM
Sensor [0]: IR75 NB Driving Dry - 68.0 - - - - 12 / 60.3 10/25/2014 3:31:12 PM
106-SR39 @ Sugarcreek (200105) Status Air Temp Sfc Temp Sub Temp Dew Temp Wind Precip Traffic Updated
Sensor [A]: Atmospheric - 68.0 - - 54.9 14.9 / W - - 10/25/2014 3:24:48 PM
Sensor [0]: SR39 EB Lane Dry - 80.1 - - - - 6 / 51.0 10/25/2014 3:24:48 PM
Sensor [1]: SR39 WB Lane Dry - 81.5 57.4 - - - 131 / 47.8 10/25/2014 3:24:48 PM
107-US250 @ Ulrichsville (200106) Status Air Temp Sfc Temp Sub Temp Dew Temp Wind Precip Traffic Updated
Sensor [A]: Atmospheric - 69.6 - - 53.8 7.5 / SW - - 10/25/2014 3:33:19 PM
Sensor [0]: US250 EB Driving Dry - 78.8 59.0 - - - 0 / 5.0 10/25/2014 3:33:19 PM
Sensor [1]: US250 WB Driving Dry - 78.8 - - - - 0 / 5.0 10/25/2014 3:33:19 PM
108-SR183 @ Minerva (200107) Status Air Temp Sfc Temp Sub Temp Dew Temp Wind Precip Traffic Updated
Sensor [A]: Atmospheric - 67.3 - - 54.0 10.6 / W - - 10/25/2014 3:25:40 PM
Sensor [0]: SR183 NB Bridgedeck Dry - 73.9 54.7 - - - 9 / 70.8 10/25/2014 3:25:40 PM
Sensor [1]: SR183 SB Dry - 74.7 - - - - 4 / 9.9 10/25/2014 3:25:40 PM
109-SR22 @ SR151 (200108) Status Air Temp Sfc Temp Sub Temp Dew Temp Wind Precip Traffic Updated
Sensor [A]: Atmospheric - 65.3 - - 52.2 4.3 / NE - - 10/25/2014 3:33:22 PM
Sensor [0]: SR22E Driving Lane Dry - 77.9 61.7 - - - 19 / 67.1 10/25/2014 3:33:22 PM
Sensor [1]: SR22W Passing Lane Dry - 80.6 - - - - 2 / 73.9 10/25/2014 3:33:22 PM
110-SR7 @ SR213 (200109) Status Air Temp Sfc Temp Sub Temp Dew Temp Wind Precip Traffic Updated
Sensor [A]: Atmospheric - 67.6 - - 53.2 4.3 / SW - - 10/25/2014 3:26:21 PM
Sensor [0]: SR7 NB Driving Dry - 77.9 58.3 - - - 6 / 42.3 10/25/2014 3:26:21 PM
111-I70 MM 114 (200110) Status Air Temp Sfc Temp Sub Temp Dew Temp Wind Precip Traffic Updated
Sensor [A]: Atmospheric - 70.0 - - 55.4 - - - 10/25/2014 3:30:52 PM
112-USR 27 @ 21 MM (200111) Status Air Temp Sfc Temp Sub Temp Dew Temp Wind Precip Traffic Updated
Sensor [A]: Atmospheric - 73.6 - - 53.1 4.3 / N - - 10/25/2014 3:31:55 PM
Sensor [0]: SR27 NB Lane Dry - 95.9 56.3 - - - 16 / 47.2 10/25/2014 3:31:55 PM
Sensor [1]: SR27 SB Lane Dry - 96.8 - - - - 15 / 46.0 10/25/2014 3:31:55 PM
113-I-275 @ USR 52 (200112) Status Air Temp Sfc Temp Sub Temp Dew Temp Wind Precip Traffic Updated
Sensor [A]: Atmospheric - 72.0 - - 57.0 5.0 / N - - 10/25/2014 3:00:12 PM
114-IR71 @ US36 (38000) Status Air Temp Sfc Temp Sub Temp Dew Temp Wind Precip Traffic Updated
Sensor [A]: Atmospheric - 73.4 - - 48.9 9.3 / N - - 10/25/2014 3:30:47 PM
Sensor [0]: I71 SB Driving Dry - 94.1 - - - - - 10/25/2014 3:30:47 PM
Sensor [1]: US36 WB Departure Dry - 84.2 - - - - - 10/25/2014 3:30:47 PM
Sensor [2]: US36 WB Bridge Dry - 87.8 - - - - - 10/25/2014 3:30:47 PM
115-IR71 @ Schrock Road (38001) Status Air Temp Sfc Temp Sub Temp Dew Temp Wind Precip Traffic Updated
Sensor [A]: Atmospheric - 76.3 - - 62.1 6.2 / SW - - 10/25/2014 3:30:48 PM
Sensor [0]: Schrock Rd Approach Dry - 91.0 - - - - - 10/25/2014 3:30:48 PM
Sensor [1]: Schrock Rd Bridgedeck Dry - 88.7 - - - - - 10/25/2014 3:30:48 PM
116-IR70W @ I270 (38004) Status Air Temp Sfc Temp Sub Temp Dew Temp Wind Precip Traffic Updated
Sensor [A]: Atmospheric - - - - - 11.2 / W - - 10/25/2014 3:30:50 PM
Sensor [0]: I-70 EB Drive Error - - - - - - - 10/25/2014 3:30:50 PM
117-IR70 @ SR29 (38005) Status Air Temp Sfc Temp Sub Temp Dew Temp Wind Precip Traffic Updated
Sensor [A]: Atmospheric - 71.8 - - 47.3 9.9 / W - - 10/25/2014 3:30:52 PM
Sensor [0]: SR29 NB Bridgedeck Dry - 68.0 - - - - - 10/25/2014 3:30:52 PM
Sensor [1]: I70 EB Passing Dry - 82.4 - - - - - 10/25/2014 3:30:52 PM
Sensor [2]: I70 WB Driving Dry - 84.7 - - - - - 10/25/2014 3:30:52 PM
118-IR70/IR71/SR315 (38006) Status Air Temp Sfc Temp Sub Temp Dew Temp Wind Precip Traffic Updated
Sensor [A]: Atmospheric - 72.9 - - 48.7 7.5 / W - - 10/25/2014 3:25:52 PM
Sensor [0]: I70 WB to I71 SB Ramp Dry - 67.3 - - - - - 10/25/2014 3:25:52 PM
Sensor [1]: I70 EB to SR315 Ramp Dry - 95.0 - - - - - 10/25/2014 3:25:52 PM
Sensor [3]: I70 WB Driving Dry - 87.8 - - - - - 10/25/2014 3:25:52 PM
119-IR71S @ I270 (38007) Status Air Temp Sfc Temp Sub Temp Dew Temp Wind Precip Traffic Updated
Sensor [A]: Atmospheric - 33.1 - - 23.2 7.5 / N - - 1/20/2014 7:31:46 AM
Sensor [2]: I270 EB Passing Error - - - - - - - 1/20/2014 7:31:46 AM
120-US33 @ Hamilton Road (38010) Status Air Temp Sfc Temp Sub Temp Dew Temp Wind Precip Traffic Updated
Sensor [A]: Atmospheric - 71.4 - - 59.9 4.3 / E - - 10/25/2014 3:31:17 PM
Sensor [0]: US33 EB Driving Dry - 86.9 - - - - - 10/25/2014 3:31:17 PM
Sensor [1]: US33 EB Passing Dry - 80.6 - - - - - 10/25/2014 3:31:17 PM
121-I-670 Over Airport Connector (38014) Status Air Temp Sfc Temp Sub Temp Dew Temp Wind Precip Traffic Updated
Sensor [A]: Atmospheric - 73.2 - - 50.0 6.8 / W - - 10/25/2014 3:31:18 PM
Sensor [0]: Airport Connector Bridgedeck Dry - 81.9 - - - - - 10/25/2014 3:31:18 PM
Sensor [1]: I670 EB Passing Dry - 84.7 - - - - - 10/25/2014 3:31:18 PM
Sensor [2]: I670 WB Passing Dry - 84.6 - - - - - 10/25/2014 3:31:18 PM
122-Medina Line Rd. Over I-271 (612000) Status Air Temp Sfc Temp Sub Temp Dew Temp Wind Precip Traffic Updated
Sensor [A]: Atmospheric - 70.7 - - 46.0 11.2 / W - - 10/25/2014 3:30:06 PM
Sensor [0]: SB Bridge Dry - 77.5 - - - - - 10/25/2014 3:30:06 PM
Sensor [1]: SB Road Dry - 75.2 - - - - - 10/25/2014 3:30:06 PM
123-Steels Corner Rd. /Mud Creek (612003) Status Air Temp Sfc Temp Sub Temp Dew Temp Wind Precip Traffic Updated
Sensor [A]: Atmospheric - 71.1 - - 52.3 8.1 / W - - 10/25/2014 3:30:08 PM
Sensor [0]: WB Bridge Dry - 85.5 - - - - - 10/25/2014 3:30:08 PM
Sensor [1]: WB Road Dry - 77.0 73.4 - - - - 10/25/2014 3:30:08 PM
124-Old Mill Rd. Over I-480 (612004) Status Air Temp Sfc Temp Sub Temp Dew Temp Wind Precip Traffic Updated
Sensor [A]: Atmospheric - 69.3 - - 51.6 6.8 / W - - 10/25/2014 3:30:10 PM
125-Ridgewood Rd. Over Rt 21 (612006) Status Air Temp Sfc Temp Sub Temp Dew Temp Wind Precip Traffic Updated
Sensor [A]: Atmospheric - 71.2 - - 49.8 8.1 / W - - 10/25/2014 3:30:20 PM
Sensor [0]: EB Bridge Deck Dry - 73.4 - - - - - 10/25/2014 3:30:20 PM
126-Killian Rd. Over I-77 (612011) Status Air Temp Sfc Temp Sub Temp Dew Temp Wind Precip Traffic Updated
Sensor [A]: Atmospheric - 69.1 - - 47.5 12.4 / W - - 10/25/2014 3:30:23 PM
Sensor [0]: EB Bridge Dry - 82.9 59.0 - - - - 10/25/2014 3:30:23 PM
127-US 6 Williams County (582000) Status Air Temp Sfc Temp Sub Temp Dew Temp Wind Precip Traffic Updated
Sensor [A]: Atmospheric - 68.2 - - 48.6 13.0 / SW - - 10/25/2014 3:30:19 PM
Sensor [0]: US-6 EB Lane Dry - 88.7 - - - - 8 / 52.2 10/25/2014 3:30:19 PM
Sensor [2]: US6 EB Dry - 83.1 55.6 - - - - 10/25/2014 3:30:19 PM
128-US 20 @ SLM 1.5 ***Under Construction*** (582001) Status Air Temp Sfc Temp Sub Temp Dew Temp Wind Precip Traffic Updated
Sensor [A]: Atmospheric - 68.2 - - 39.0 18.0 / W - - 10/25/2014 3:30:21 PM
Sensor [0]: US-20 EB Dry - 88.7 - - - - - 10/25/2014 3:30:21 PM
129-US 20 @ SLM 11.5 (582002) Status Air Temp Sfc Temp Sub Temp Dew Temp Wind Precip Traffic Updated
Sensor [A]: Atmospheric - 70.0 - - 44.1 18.0 / W - - 10/25/2014 3:30:23 PM
Sensor [2]: SR-20A WB Approach Dry - 82.8 55.4 - - - - 10/25/2014 3:30:23 PM
Sensor [3]: SR-20A WB Deck Dry - 82.8 - - - - - 10/25/2014 3:30:23 PM
130-US 20A @ SLM 2.5 Fulton (582003) Status Air Temp Sfc Temp Sub Temp Dew Temp Wind Precip Traffic Updated
Sensor [A]: Atmospheric - 70.2 - - 11.1 9.9 / SW - - 10/25/2014 3:30:25 PM
Sensor [0]: US-20 EB Deck Dry - 64.4 - - - - - 10/25/2014 3:30:25 PM
Sensor [1]: US-20 EB Approach Dry - 84.2 - - - - - 10/25/2014 3:30:25 PM
131-US 20 @ SLM 9.5 Fulton (582004) Status Air Temp Sfc Temp Sub Temp Dew Temp Wind Precip Traffic Updated
Sensor [A]: Atmospheric - 68.2 - - 48.9 - - - 10/25/2014 3:30:27 PM
Sensor [0]: US-20 WB Deck Dry - 81.9 - - - - - 10/25/2014 3:30:27 PM
Sensor [1]: US-20 EB Approach Dry - 84.7 - - - - - 10/25/2014 3:30:27 PM
132-SR 64 @ SLM 6.0 Fulton (582005) Status Air Temp Sfc Temp Sub Temp Dew Temp Wind Precip Traffic Updated
Sensor [A]: Atmospheric - 68.9 - - 49.3 19.9 / W - - 10/25/2014 3:30:29 PM
133-US 6 @ SLM .5 (582006) Status Air Temp Sfc Temp Sub Temp Dew Temp Wind Precip Traffic Updated
Sensor [A]: Atmospheric - 68.5 - - 49.6 17.4 / W - - 10/25/2014 3:30:30 PM
Sensor [0]: US-6 WB Dry - 80.8 56.1 - - - - 10/25/2014 3:30:30 PM
134-SR 108 @ SLM .5 (582007) Status Air Temp Sfc Temp Sub Temp Dew Temp Wind Precip Traffic Updated
Sensor [A]: Atmospheric - 70.5 - - 40.6 21.1 / W - - 10/25/2014 3:30:07 PM
Sensor [0]: SR-108 NB Dry - 89.6 57.0 - - - - 10/25/2014 3:30:07 PM
135-US Rt 6 @ Maumee River (582008) Status Air Temp Sfc Temp Sub Temp Dew Temp Wind Precip Traffic Updated
Sensor [A]: Atmospheric - 67.1 - - 50.9 14.9 / NW - - 10/25/2014 3:30:10 PM
Sensor [0]: US-6 EB Deck Error - 76.5 - - - - - 10/25/2014 3:30:10 PM
Sensor [1]: US-6 WB Deck Error - - - - - - - 10/25/2014 3:30:10 PM
136-Rt 65 South Henry County (582009) Status Air Temp Sfc Temp Sub Temp Dew Temp Wind Precip Traffic Updated
Sensor [A]: Atmospheric - 72.7 - - 43.7 17.4 / W - - 10/25/2014 3:30:14 PM
Sensor [0]: SR-65 NB Dry - 92.3 - - - - - 10/25/2014 3:30:14 PM
137 - SR 64 @ SLM 7.5 Lucas (582010) Status Air Temp Sfc Temp Sub Temp Dew Temp Wind Precip Traffic Updated
Sensor [A]: Atmospheric - 67.5 - - 47.7 3.7 / SE - - 10/25/2014 3:30:16 PM
Sensor [0]: SR-64 EB Approach Dry - 59.5 - - - - - 10/25/2014 3:30:16 PM
Sensor [1]: SR-64 EB @ RPU Dry - 66.7 - - - - - 10/25/2014 3:30:16 PM
138-US 24 near Grand Rapids (582011) Status Air Temp Sfc Temp Sub Temp Dew Temp Wind Precip Traffic Updated
Sensor [A]: Atmospheric - 68.2 - - 49.1 6.8 / N - - 10/25/2014 3:30:18 PM
Sensor [0]: SR-578 SB Maumee River Dry - 79.0 57.2 - - - - 10/25/2014 3:30:18 PM
Sensor [1]: SR-578 SB Dry - 84.6 - - - - - 10/25/2014 3:30:18 PM
139-I-80 & I-475 Lucas ***Under Construction*** (582012) Status Air Temp Sfc Temp Sub Temp Dew Temp Wind Precip Traffic Updated
Sensor [A]: Atmospheric - 72.1 - - 71.6 1.9 / SW - - 10/3/2013 12:40:42 PM
Sensor [0]: I-475 NB Deck Dry - 77.0 - - - - - 10/3/2013 12:40:42 PM
Sensor [1]: I-475 SB Approach Error - - - - - - - 10/3/2013 12:40:42 PM
140-IR 475 @ US 23 Split ***Under Construction*** (582013) Status Air Temp Sfc Temp Sub Temp Dew Temp Wind Precip Traffic Updated
Sensor [A]: Atmospheric - 72.3 - - 71.6 9.3 / Unknown - - 10/25/2014 3:30:37 PM
141-IR 75 @ SLM 4.9 475 Split (582014) Status Air Temp Sfc Temp Sub Temp Dew Temp Wind Precip Traffic Updated
Sensor [A]: Atmospheric - 69.1 - - 54.7 13.7 / W - - 10/25/2014 3:30:08 PM
Sensor [1]: I-75 SB Dry - 83.3 - - - - - 10/25/2014 3:30:08 PM
Sensor [3]: I-475 EB Departure Dry - 82.4 - - - - - 10/25/2014 3:30:08 PM
142 - I-280 @ Veterans Glass City Skyway (VGCS) (582016) Status Air Temp Sfc Temp Sub Temp Dew Temp Wind Precip Traffic Updated
Sensor [A]: Atmospheric - 66.6 - - 47.7 19.9 / W - - 10/25/2014 3:30:14 PM
Sensor [0]: NB I-280 Driving Lane Dry - 83.1 - - - - 46 / 59.0 10/25/2014 3:30:14 PM
Sensor [4]: SB I-280 Center Lane Dry - 81.1 - - - - 58 / 57.8 10/25/2014 3:30:14 PM
143-SR 2 @ MP 31.8 Lucas (582017) Status Air Temp Sfc Temp Sub Temp Dew Temp Wind Precip Traffic Updated
Sensor [A]: Atmospheric - 67.8 - - 49.5 11.8 / SW - - 10/25/2014 3:30:16 PM
Sensor [0]: SR-2 EB Deck Dry - 88.7 - - - - - 10/25/2014 3:30:16 PM
144-IR 75 & Eagleville Rd. (582018) Status Air Temp Sfc Temp Sub Temp Dew Temp Wind Precip Traffic Updated
Sensor [A]: Atmospheric - 76.6 - - 63.0 4.3 / NE - - 8/18/2014 12:00:17 PM
Sensor [0]: I-75 NB Deck Error - - - - - - - 8/18/2014 12:00:17 PM
Sensor [1]: I-75 SB Deck Error - - - - - - - 8/18/2014 12:00:17 PM
145-IR 75 @ SLM 18.36 Wood (582019) Status Air Temp Sfc Temp Sub Temp Dew Temp Wind Precip Traffic Updated
Sensor [A]: Atmospheric - 80.8 - - 54.1 2.5 / E - - 8/7/2014 1:00:20 PM
Sensor [0]: I-75 NB Approach Error - 112.6 - - - - - 8/7/2014 1:00:20 PM
Sensor [1]: I-75 SB Deck Dry - 108.3 - - - - - 8/7/2014 1:00:20 PM
146-I-75 @ I-475 Wood ***Under Construction*** (582020) Status Air Temp Sfc Temp Sub Temp Dew Temp Wind Precip Traffic Updated
Sensor [A]: Atmospheric - 68.9 - - 53.6 13.0 / W - - 10/25/2014 3:30:29 PM
147-I-75 @ I-80 Wood County (582021) Status Air Temp Sfc Temp Sub Temp Dew Temp Wind Precip Traffic Updated
Sensor [A]: Atmospheric - 69.3 - - 55.6 8.7 / W - - 10/25/2014 3:30:31 PM
Sensor [0]: I-75 NB Deck Dry - 82.2 - - - - - 10/25/2014 3:30:31 PM
Sensor [1]: I-75 SB Deck Error - - - - - - - 10/25/2014 3:30:31 PM
148-US-6 @ Rt. 23 (582022) Status Air Temp Sfc Temp Sub Temp Dew Temp Wind Precip Traffic Updated
Sensor [A]: Atmospheric - 57.0 - - 52.9 8.7 / SW - - 10/25/2014 9:00:38 AM
Sensor [0]: US-6 EB Dry - 56.3 - - - - 0 / 9.9 10/25/2014 9:00:38 AM
Sensor [1]: US-23 NB Dry - 56.3 - - - - 0 / 9.9 10/25/2014 9:00:38 AM
149-US-20 @ Lemoyne Rd. (582023) Status Air Temp Sfc Temp Sub Temp Dew Temp Wind Precip Traffic Updated
Sensor [A]: Atmospheric - 73.8 - - 55.9 11.8 / W - - 10/25/2014 3:30:51 PM
Sensor [0]: US-20 EB Departure Dry - 87.8 - - - - 23 / 57.2 10/25/2014 3:30:51 PM
150-I-280 @ Libbey Rd. (582024) Status Air Temp Sfc Temp Sub Temp Dew Temp Wind Precip Traffic Updated
Sensor [A]: Atmospheric - 69.1 - - 51.3 9.9 / W - - 10/25/2014 3:30:54 PM
151-SR 2 @ Portage River Bridge (582025) Status Air Temp Sfc Temp Sub Temp Dew Temp Wind Precip Traffic Updated
Sensor [A]: Atmospheric - 67.6 - - 50.4 9.3 / W - - 10/25/2014 3:30:57 PM
Sensor [0]: SR-2 EB Departure Dry - 84.6 58.1 - - - - 10/25/2014 3:30:57 PM
Sensor [1]: SR-2 WB Deck Frost - 5.5 - - - - - 10/25/2014 3:30:57 PM
152-SR-2@28.5 Bay Br. (582026) Status Air Temp Sfc Temp Sub Temp Dew Temp Wind Precip Traffic Updated
Sensor [A]: Atmospheric - 63.9 - - 63.9 18.0 / SE - - 10/25/2014 3:30:58 PM
Sensor [3]: SR2 EB Driving Lane - Bridge Deck Dry - 81.5 - - - - 0 / 0.0 10/25/2014 3:30:58 PM
153-US-20 @ Sugar Creek (582027) Status Air Temp Sfc Temp Sub Temp Dew Temp Wind Precip Traffic Updated
Sensor [A]: Atmospheric - 71.8 - - 51.8 7.5 / SW - - 10/25/2014 3:30:05 PM
Sensor [0]: US-20 EB Driving Dry - 92.3 81.5 - - - 24 / 55.9 10/25/2014 3:30:05 PM
Sensor [1]: US-20 WB Passing Dry - 94.1 - - - - 8 / 59.0 10/25/2014 3:30:05 PM
Sensor [2]: US-20 EB Driving BridgeDeck Dry - 74.3 - - - - 0 / 0.0 10/25/2014 3:30:05 PM
154-US-6 @ Sandusky River Br (582028) Status Air Temp Sfc Temp Sub Temp Dew Temp Wind Precip Traffic Updated
Sensor [A]: Atmospheric - 70.5 - - 54.1 9.9 / SW - - 10/25/2014 3:30:07 PM
Sensor [0]: US-6 EB Approach Dry - 84.0 - - - - - 10/25/2014 3:30:07 PM
Sensor [1]: US-6 WB Deck Dry - 81.5 - - - - - 10/25/2014 3:30:07 PM
155-US 6 @ Pickeral Creek (582029) Status Air Temp Sfc Temp Sub Temp Dew Temp Wind Precip Traffic Updated
Sensor [A]: Atmospheric - 32.7 - - 18.5 14.3 / W - - 10/25/2014 3:30:09 PM
Sensor [0]: US-6 WB Departure Error - - - - - - - 10/25/2014 3:30:09 PM
Sensor [1]: US-6 WB Deck Error - 46.6 - - - - - 10/25/2014 3:30:09 PM
156-CR 296 & US 20 MP 31.0 (582030) Status Air Temp Sfc Temp Sub Temp Dew Temp Wind Precip Traffic Updated
Sensor [A]: Atmospheric - 72.0 - - 54.9 11.2 / W - - 10/25/2014 3:30:15 PM
Sensor [0]: US-20 WB Dry - 87.8 58.5 - - - - 10/25/2014 3:30:15 PM
157-US 23 @ MP 5.5 Seneca (582031) Status Air Temp Sfc Temp Sub Temp Dew Temp Wind Precip Traffic Updated
Sensor [A]: Atmospheric - 71.8 - - 51.4 19.9 / S - - 10/25/2014 3:30:17 PM
Sensor [0]: US-23 NB Dry - 82.4 - - - - - 10/25/2014 3:30:17 PM
158-SR 12 @ Mp 7.0 Seneca (582032) Status Air Temp Sfc Temp Sub Temp Dew Temp Wind Precip Traffic Updated
Sensor [A]: Atmospheric - 70.3 - - 51.8 17.4 / W - - 10/25/2014 3:30:19 PM
Sensor [0]: SR-12 WB Dry - 87.8 - - - - - 10/25/2014 3:30:19 PM
159-US 224 @ SR 53 Seneca (582033) Status Air Temp Sfc Temp Sub Temp Dew Temp Wind Precip Traffic Updated
Sensor [A]: Atmospheric - 73.4 - - 51.3 5.0 / W - - 10/25/2014 3:30:22 PM
Sensor [0]: SR-224 EB Bridge Deck Dry - 90.5 - - - - - 10/25/2014 3:30:22 PM
Sensor [1]: US-224 EB Approach Dry - 91.4 - - - - - 10/25/2014 3:30:22 PM
160-SR 4 @ MP 2.35 Seneca (582034) Status Air Temp Sfc Temp Sub Temp Dew Temp Wind Precip Traffic Updated
Sensor [A]: Atmospheric - 71.2 - - 44.6 19.9 / N - - 10/25/2014 3:30:23 PM
161-I-90 @ SR-252 (562000) Status Air Temp Sfc Temp Sub Temp Dew Temp Wind Precip Traffic Updated
Sensor [A]: Atmospheric - 67.6 - - 55.8 8.7 / NW - - 10/25/2014 3:30:04 PM
Sensor [0]: SR-252 NB RL over I-90 Dry - 87.8 - - - - - 10/25/2014 3:30:04 PM
Sensor [2]: I-90 EB N1 Lane Dry - 85.1 - - - - - 10/25/2014 3:30:04 PM
162-I-90 @ Abbey Rd. (562001) Status Air Temp Sfc Temp Sub Temp Dew Temp Wind Precip Traffic Updated
Sensor [A]: Atmospheric - - - - - / Unknown - - -
Sensor [0]: I-90 EB N3 Lane Wet - 74.7 82.2 - - - - 8/21/2011 12:10:14 AM
Sensor [2]: I-90 WB N3 Lane Bridge Wet - 71.8 - - - - - 8/21/2011 12:10:14 AM
163-I-90 @ E. 140th (562002) Status Air Temp Sfc Temp Sub Temp Dew Temp Wind Precip Traffic Updated
Sensor [A]: Atmospheric - 61.7 - - 59.4 6.2 / SW - - 10/25/2014 3:30:24 PM
Sensor [1]: I-90 WB N3 Lane Bridge Dry - 80.8 - - - - - 10/25/2014 3:30:24 PM
Sensor [2]: I-90 EB N3 Lane Bridge Dry - 79.7 - - - - - 10/25/2014 3:30:24 PM
164-I-271 @ I-90 (562003) Status Air Temp Sfc Temp Sub Temp Dew Temp Wind Precip Traffic Updated
Sensor [A]: Atmospheric - 66.4 - - 63.1 6.2 / W - - 10/25/2014 3:30:26 PM
Sensor [0]: I-271 NB TG I-90 EB Dry - 77.5 - - - - - 10/25/2014 3:30:26 PM
Sensor [1]: I-90 EB N2 Lane Bridge Dry - 75.2 - - - - - 10/25/2014 3:30:26 PM
Sensor [2]: I-271 NB TG I-90 WB Bridge Dry - 77.0 - - - - - 10/25/2014 3:30:26 PM
Sensor [3]: I-271 NB TG I-90 WB Dry - 82.0 - - - - - 10/25/2014 3:30:26 PM
165-I-480 @ SR-10 (562004) Status Air Temp Sfc Temp Sub Temp Dew Temp Wind Precip Traffic Updated
Sensor [A]: Atmospheric - 69.6 - - 57.7 - - - 10/25/2014 3:30:28 PM
Sensor [0]: I-480 EB N2 Lane Bridge Dry - 81.3 - - - - - 10/25/2014 3:30:28 PM
Sensor [1]: I-480 WB N2 Lane Bridge Dry - 80.8 - - - - - 10/25/2014 3:30:28 PM
166-I-71 @ Snow Rd. (562005) Status Air Temp Sfc Temp Sub Temp Dew Temp Wind Precip Traffic Updated
Sensor [A]: Atmospheric - 70.9 - - 61.0 7.5 / NE - - 10/25/2014 3:30:30 PM
Sensor [0]: I-71 NB N3 Lane Bridge Dry - 80.4 - - - - - 10/25/2014 3:30:30 PM
Sensor [1]: I-71 SB N3 Lane Bridge Dry - 80.6 - - - - - 10/25/2014 3:30:30 PM
Sensor [2]: I-71 SB N3 Lane Dry - 86.0 - - - - - 10/25/2014 3:30:30 PM
167-I-77 @ I-480 (562006) Status Air Temp Sfc Temp Sub Temp Dew Temp Wind Precip Traffic Updated
Sensor [A]: Atmospheric - 70.2 - - 60.3 5.0 / NW - - 10/25/2014 3:30:32 PM
Sensor [0]: I-77 NB N2L Br @ SR-17 Error - - - - - - - 10/25/2014 3:30:32 PM
Sensor [1]: I-77 SB N2L Br @ SR-17 Error - - - - - - - 10/25/2014 3:30:32 PM
Sensor [3]: I-77 NB RL Br over I-480 Dry - 84.2 - - - - - 10/25/2014 3:30:32 PM
168-I-480 N @ Miles Rd. (562007) Status Air Temp Sfc Temp Sub Temp Dew Temp Wind Precip Traffic Updated
Sensor [A]: Atmospheric - 73.8 - - 64.2 5.0 / N - - 10/25/2014 3:30:03 PM
Sensor [0]: I-480 N WB N2 Lane Dry - 77.9 - - - - - 10/25/2014 3:30:03 PM
Sensor [1]: I-480 N WB N2 Lane Br Dry - 77.9 - - - - - 10/25/2014 3:30:03 PM
Sensor [2]: I-480 EB N2 Lane Br Dry - 77.0 - - - - - 10/25/2014 3:30:03 PM
169-I-271 @ US-322 (562008) Status Air Temp Sfc Temp Sub Temp Dew Temp Wind Precip Traffic Updated
Sensor [A]: Atmospheric - 63.3 - - 60.3 9.9 / NW - - 10/25/2014 3:30:04 PM
Sensor [0]: I-271 SB N2 Lane Br Dry - 77.9 - - - - - 10/25/2014 3:30:04 PM
Sensor [1]: I-271 SB N2 Lane Dry - 81.1 - - - - - 10/25/2014 3:30:04 PM
Sensor [2]: I-271 NB N2 Lane Br Dry - 82.4 - - - - - 10/25/2014 3:30:04 PM
Sensor [3]: I-271 NB N2 Lane Dry - 81.1 - - - - - 10/25/2014 3:30:04 PM
170-I-71 @ Drake Rd. (562009) Status Air Temp Sfc Temp Sub Temp Dew Temp Wind Precip Traffic Updated
Sensor [A]: Atmospheric - 70.7 - - 52.7 6.2 / W - - 10/25/2014 3:30:06 PM
Sensor [0]: I-71 NB N2 Lane Dry - 85.6 56.5 - - - - 10/25/2014 3:30:06 PM
Sensor [1]: I-71 NB N2 Lane Br Dry - 83.7 - - - - - 10/25/2014 3:30:06 PM
Sensor [2]: I-71 SB N2 Lane Br Dry - 84.4 - - - - - 10/25/2014 3:30:06 PM
171-I-77 @ SR-82 (562010) Status Air Temp Sfc Temp Sub Temp Dew Temp Wind Precip Traffic Updated
Sensor [A]: Atmospheric - 71.6 - - 55.4 9.3 / SW - - 10/25/2014 3:30:08 PM
Sensor [0]: I-77 NB N2 Lane Br Dry - 86.9 - - - - - 10/25/2014 3:30:08 PM
Sensor [1]: I-77 SB N2 Lane Br Dry - 85.1 - - - - - 10/25/2014 3:30:08 PM
Sensor [2]: I-77 SB N2 Lane Dry - 86.9 - - - - - 10/25/2014 3:30:08 PM
172-US-422 @ Chagrin Blvd. (562011) Status Air Temp Sfc Temp Sub Temp Dew Temp Wind Precip Traffic Updated
Sensor [A]: Atmospheric - 67.8 - - 48.6 11.8 / SW - - 10/25/2014 3:30:10 PM
Sensor [0]: US-422 WB N2 Lane Dry - 80.2 56.3 - - - - 10/25/2014 3:30:10 PM
Sensor [1]: US-422 WB N2 Lane Br Dry - 77.0 - - - - - 10/25/2014 3:30:10 PM
Sensor [2]: US-422 EB N2 Lane Br Dry - 76.5 - - - - - 10/25/2014 3:30:10 PM
173-US-422 @ SR-44 (562012) Status Air Temp Sfc Temp Sub Temp Dew Temp Wind Precip Traffic Updated
Sensor [A]: Atmospheric - 67.1 - - 51.4 9.9 / W - - 10/25/2014 3:30:15 PM
Sensor [2]: US-422 EB N2 Lane Br Dry - 79.7 - - - - - 10/25/2014 3:30:15 PM
174- SR-528 @SR-87 (562013) Status Air Temp Sfc Temp Sub Temp Dew Temp Wind Precip Traffic Updated
Sensor [A]: Atmospheric - 68.9 - - 56.7 10.6 / W - - 10/25/2014 3:30:02 PM
Sensor [0]: SR528 NB Dry - 80.6 - - - - - 10/25/2014 3:30:02 PM
Sensor [1]: SR87 WB Dry - 86.9 - - - - - 10/25/2014 3:30:02 PM
175-SR-44 @ Mentor Rd. (562014) Status Air Temp Sfc Temp Sub Temp Dew Temp Wind Precip Traffic Updated
Sensor [A]: Atmospheric - 64.2 - - 55.6 4.3 / W - - 10/25/2014 3:30:03 PM
Sensor [0]: SR44 NB Dry - 77.0 57.2 - - - - 10/25/2014 3:30:03 PM
176-SR-528 @ SR-166 (562015) Status Air Temp Sfc Temp Sub Temp Dew Temp Wind Precip Traffic Updated
Sensor [A]: Atmospheric - 64.6 - - 54.5 13.0 / NE - - 10/25/2014 3:30:04 PM
Sensor [0]: SR-528 SB N of SR-166 Dry - 83.3 - - - - - 10/25/2014 3:30:04 PM
Sensor [1]: SR-166 WB W of SR-528 Dry - 75.2 - - - - - 10/25/2014 3:30:04 PM
177-I-90 @ Hermitage Rd. (562016) Status Air Temp Sfc Temp Sub Temp Dew Temp Wind Precip Traffic Updated
Sensor [A]: Atmospheric - 66.7 - - 66.7 1.2 / E - - 6/18/2014 8:10:08 AM
Sensor [0]: I-90 WB N2 Lane Br Error - - - - - - - 6/18/2014 8:10:08 AM
178-I-90 @ Paine Rd. (562017) Status Air Temp Sfc Temp Sub Temp Dew Temp Wind Precip Traffic Updated
Sensor [A]: Atmospheric - 63.9 - - 42.3 6.8 / E - - 5/3/2013 8:30:25 AM
Sensor [0]: I-90 WB N2 Lane Br Error - - - - - - - 5/3/2013 8:30:25 AM
179-US-20 @ Parmly Rd. (562018) Status Air Temp Sfc Temp Sub Temp Dew Temp Wind Precip Traffic Updated
Sensor [A]: Atmospheric - 62.8 - - 59.4 1.9 / NE - - 10/25/2014 3:30:43 PM
Sensor [0]: US-20 WB N2 Lane Dry - 81.5 - - - - - 10/25/2014 3:30:43 PM
180-I270 @ US33 (38015) Status Air Temp Sfc Temp Sub Temp Dew Temp Wind Precip Traffic Updated
Sensor [A]: Atmospheric - 72.0 - - 63.3 11.2 / NW - - 10/25/2014 3:30:05 PM
181-US32 @ Pike & Adams County Line (200180) Status Air Temp Sfc Temp Sub Temp Dew Temp Wind Precip Traffic Updated
Sensor [A]: Atmospheric - 65.8 - - 54.9 8.7 / SW - - 10/25/2014 3:31:20 PM
Sensor [0]: US32 EB Driving Dry - 80.6 - - - - 1 / 9.9 10/25/2014 3:31:20 PM
Sensor [1]: US32 WB Driving Dry - 78.8 - - - - 4 / 9.9 10/25/2014 3:31:20 PM
182-I71 @ SR665 Grove City Outpost (200181) Status Air Temp Sfc Temp Sub Temp Dew Temp Wind Precip Traffic Updated
Sensor [A]: Atmospheric - 70.3 - - 55.2 12.4 / W - - 10/25/2014 3:32:22 PM
Sensor [0]: IR71 NB Driving Dry - 87.8 - - - - 69 / 60.3 10/25/2014 3:32:22 PM
183-US30 @ SR68 (200182) Status Air Temp Sfc Temp Sub Temp Dew Temp Wind Precip Traffic Updated
Sensor [A]: Atmospheric - 71.2 - - 51.4 20.5 / W - - 10/25/2014 3:32:56 PM
Sensor [0]: US30 EB Driving Dry - 88.7 - - - - - 10/25/2014 3:32:56 PM
Sensor [1]: US30 WB Driving Bridgedeck Dry - 80.6 - - - - - 10/25/2014 3:32:56 PM
184 - SR562(Norwood Lateral) @ Reading Road (80000) Status Air Temp Sfc Temp Sub Temp Dew Temp Wind Precip Traffic Updated
Sensor [A]: Atmospheric - 65.3 - - 58.6 5.0 / NE - - 5/7/2013 11:00:57 AM
185 - River Road @ Kibby Lane (80001) Status Air Temp Sfc Temp Sub Temp Dew Temp Wind Precip Traffic Updated
Sensor [A]: Atmospheric - 55.2 - - 43.5 2.5 / E - - 10/22/2014 2:50:40 PM
186-SR49 @ SR81 (200185) Status Air Temp Sfc Temp Sub Temp Dew Temp Wind Precip Traffic Updated
Sensor [A]: Atmospheric - 72.0 - - 50.5 6.2 / NW - - 10/25/2014 3:33:02 PM
Sensor [0]: SR81 Eastbound Approach Dry - 94.1 - - - - - 10/25/2014 3:33:02 PM
Sensor [1]: SR81 Westbound Bridgedeck Dry - 95.9 - - - - - 10/25/2014 3:33:02 PM
187-SR15 @ SR613 (200186) Status Air Temp Sfc Temp Sub Temp Dew Temp Wind Precip Traffic Updated
Sensor [A]: Atmospheric - 70.3 - - 54.0 9.9 / W - - 10/25/2014 3:28:58 PM
Sensor [0]: SR15 NB Lane Dry - 80.1 - - - - - 10/25/2014 3:28:58 PM